UAL1876 KEWR-MRLB
Flight info
| Callsign | UAL1876 |
|---|---|
| Flight time | 4h 39m |
| Altitude | 34000 |
| Route | ELVAE DCT NECCK DCT WHITE Q409 CRPLR DCT EARZZ Q131 WAALT Y289 BAHAA DCT HIBAC DCT EBAYY Q93 MCLAW Y442 FUNDI UM335 ALVEK UM328 SELEK DCT BENAS DCT OVADO OVADO1S |
| Aircraft | B738/M-SDE2E3FGHIRWXY/LB1 |
Departure
| Time | 2026-05-04 14:23 |
|---|---|
| Airport | Newark Liberty International Airport (KEWR) |
Arrival
| Time | 2026-05-04 19:02 |
|---|---|
| Airport | Daniel Oduber Quirós International Airport (MRLB) |
| Time | Latitude | Longitude | Altitude | Speed | Heading |
|---|---|---|---|---|---|
| 2026-05-04 13:31 | 40.68301 | -74.18408 | 25 ft | 0 kts | 5° |
| 2026-05-04 14:11 | 40.68293 | -74.18410 | 25 ft | 2 kts | 5° |
| 2026-05-04 14:11 | 40.68277 | -74.18411 | 25 ft | 2 kts | 6° |
| 2026-05-04 14:12 | 40.68263 | -74.18413 | 25 ft | 2 kts | 5° |
| 2026-05-04 14:12 | 40.68249 | -74.18419 | 25 ft | 2 kts | 50° |
| 2026-05-04 14:12 | 40.68244 | -74.18432 | 25 ft | 2 kts | 88° |
| 2026-05-04 14:13 | 40.68244 | -74.18411 | 25 ft | 0 kts | 94° |
| 2026-05-04 14:15 | 40.68244 | -74.18409 | 25 ft | 1 kts | 94° |
| 2026-05-04 14:16 | 40.68238 | -74.18312 | 25 ft | 9 kts | 95° |
| 2026-05-04 14:16 | 40.68232 | -74.18210 | 25 ft | 13 kts | 91° |
| 2026-05-04 14:17 | 40.68205 | -74.17912 | 25 ft | 18 kts | 115° |
| 2026-05-04 14:17 | 40.68221 | -74.17798 | 26 ft | 13 kts | 37° |
| 2026-05-04 14:17 | 40.68412 | -74.17668 | 25 ft | 17 kts | 26° |
| 2026-05-04 14:18 | 40.68527 | -74.17598 | 25 ft | 19 kts | 25° |
| 2026-05-04 14:18 | 40.68774 | -74.17439 | 25 ft | 19 kts | 26° |
| 2026-05-04 14:19 | 40.69017 | -74.17289 | 26 ft | 18 kts | 25° |
| 2026-05-04 14:19 | 40.69134 | -74.17214 | 26 ft | 18 kts | 27° |
| 2026-05-04 14:19 | 40.69248 | -74.17139 | 25 ft | 18 kts | 26° |
| 2026-05-04 14:19 | 40.69361 | -74.17066 | 25 ft | 17 kts | 26° |
| 2026-05-04 14:20 | 40.69474 | -74.16995 | 26 ft | 17 kts | 26° |
| 2026-05-04 14:20 | 40.69587 | -74.16924 | 26 ft | 18 kts | 26° |
| 2026-05-04 14:20 | 40.69706 | -74.16847 | 25 ft | 18 kts | 26° |
| 2026-05-04 14:21 | 40.69939 | -74.16760 | 26 ft | 16 kts | 5° |
| 2026-05-04 14:21 | 40.70047 | -74.16744 | 26 ft | 14 kts | 19° |
| 2026-05-04 14:21 | 40.70076 | -74.16632 | 26 ft | 13 kts | 96° |
| 2026-05-04 14:21 | 40.70068 | -74.16510 | 26 ft | 13 kts | 95° |
| 2026-05-04 14:22 | 40.70046 | -74.16401 | 26 ft | 11 kts | 135° |
| 2026-05-04 14:22 | 40.69970 | -74.16402 | 26 ft | 13 kts | 204° |
| 2026-05-04 14:22 | 40.69756 | -74.16537 | 26 ft | 68 kts | 206° |
| 2026-05-04 14:22 | 40.69117 | -74.16942 | 26 ft | 134 kts | 206° |
| 2026-05-04 14:23 | 40.67042 | -74.18193 | 1097 ft | 167 kts | 198° |
| 2026-05-04 14:23 | 40.65867 | -74.18229 | 1583 ft | 182 kts | 178° |
| 2026-05-04 14:23 | 40.64576 | -74.18005 | 2093 ft | 189 kts | 181° |
| 2026-05-04 14:24 | 40.63246 | -74.18147 | 2454 ft | 200 kts | 201° |
| 2026-05-04 14:24 | 40.61920 | -74.18967 | 2750 ft | 220 kts | 214° |
| 2026-05-04 14:24 | 40.60586 | -74.20012 | 3359 ft | 230 kts | 213° |
| 2026-05-04 14:24 | 40.59158 | -74.21061 | 3927 ft | 242 kts | 212° |
| 2026-05-04 14:25 | 40.57620 | -74.22030 | 4570 ft | 252 kts | 200° |
| 2026-05-04 14:25 | 40.54033 | -74.21673 | 6043 ft | 270 kts | 171° |
| 2026-05-04 14:25 | 40.52204 | -74.21081 | 6761 ft | 274 kts | 172° |
| 2026-05-04 14:26 | 40.50328 | -74.20544 | 7479 ft | 277 kts | 174° |
| 2026-05-04 14:26 | 40.48444 | -74.20070 | 8207 ft | 280 kts | 175° |
| 2026-05-04 14:26 | 40.46531 | -74.19618 | 8885 ft | 284 kts | 175° |
| 2026-05-04 14:26 | 40.44580 | -74.19164 | 9569 ft | 288 kts | 175° |
| 2026-05-04 14:27 | 40.42594 | -74.18700 | 10209 ft | 293 kts | 175° |
| 2026-05-04 14:27 | 40.40530 | -74.18220 | 10616 ft | 307 kts | 175° |
| 2026-05-04 14:27 | 40.38392 | -74.17722 | 10996 ft | 322 kts | 175° |
| 2026-05-04 14:27 | 40.36137 | -74.17194 | 11333 ft | 337 kts | 174° |
| 2026-05-04 14:28 | 40.33761 | -74.16637 | 11632 ft | 353 kts | 174° |
| 2026-05-04 14:28 | 40.31322 | -74.16202 | 12022 ft | 362 kts | 180° |
| 2026-05-04 14:28 | 40.28801 | -74.16381 | 12636 ft | 361 kts | 193° |
| 2026-05-04 14:28 | 40.26350 | -74.17035 | 13238 ft | 363 kts | 198° |
| 2026-05-04 14:29 | 40.21415 | -74.18744 | 14431 ft | 372 kts | 199° |
| 2026-05-04 14:29 | 40.16361 | -74.20416 | 15701 ft | 379 kts | 198° |
| 2026-05-04 14:30 | 40.13804 | -74.21210 | 16325 ft | 383 kts | 198° |
| 2026-05-04 14:30 | 40.11207 | -74.21995 | 16928 ft | 386 kts | 198° |
| 2026-05-04 14:30 | 40.05903 | -74.23579 | 18112 ft | 392 kts | 198° |
| 2026-05-04 14:31 | 40.03294 | -74.24460 | 18632 ft | 395 kts | 202° |
| 2026-05-04 14:31 | 39.98313 | -74.27378 | 19706 ft | 393 kts | 216° |
| 2026-05-04 14:32 | 39.93811 | -74.31410 | 20734 ft | 397 kts | 221° |
| 2026-05-04 14:32 | 39.91605 | -74.33547 | 21287 ft | 399 kts | 221° |
| 2026-05-04 14:32 | 39.89357 | -74.35744 | 21797 ft | 402 kts | 221° |
| 2026-05-04 14:32 | 39.87113 | -74.37929 | 22270 ft | 406 kts | 221° |
| 2026-05-04 14:33 | 39.84824 | -74.40144 | 22762 ft | 409 kts | 221° |
| 2026-05-04 14:33 | 39.82569 | -74.42360 | 23229 ft | 411 kts | 223° |
| 2026-05-04 14:33 | 39.80416 | -74.44780 | 23715 ft | 411 kts | 227° |
| 2026-05-04 14:33 | 39.78360 | -74.47356 | 24166 ft | 413 kts | 230° |
| 2026-05-04 14:34 | 39.76348 | -74.50015 | 24680 ft | 413 kts | 230° |
| 2026-05-04 14:34 | 39.74355 | -74.52703 | 25078 ft | 416 kts | 231° |
| 2026-05-04 14:34 | 39.72350 | -74.55420 | 25508 ft | 419 kts | 231° |
| 2026-05-04 14:34 | 39.70329 | -74.58150 | 25905 ft | 421 kts | 231° |
| 2026-05-04 14:35 | 39.68301 | -74.60873 | 26286 ft | 424 kts | 230° |
| 2026-05-04 14:35 | 39.66249 | -74.63614 | 26692 ft | 426 kts | 230° |
| 2026-05-04 14:35 | 39.64156 | -74.66395 | 27134 ft | 427 kts | 230° |
| 2026-05-04 14:35 | 39.62088 | -74.69134 | 27503 ft | 430 kts | 230° |
| 2026-05-04 14:36 | 39.59967 | -74.71937 | 27865 ft | 433 kts | 230° |
| 2026-05-04 14:36 | 39.57866 | -74.74708 | 28238 ft | 435 kts | 230° |
| 2026-05-04 14:36 | 39.55761 | -74.77479 | 28586 ft | 437 kts | 229° |
| 2026-05-04 14:36 | 39.53602 | -74.80317 | 28959 ft | 439 kts | 230° |
| 2026-05-04 14:37 | 39.51612 | -74.82931 | 29279 ft | 441 kts | 230° |
| 2026-05-04 14:37 | 39.49452 | -74.85761 | 29812 ft | 438 kts | 229° |
| 2026-05-04 14:37 | 39.47351 | -74.88509 | 30391 ft | 434 kts | 230° |
| 2026-05-04 14:37 | 39.45221 | -74.91293 | 30851 ft | 432 kts | 230° |
| 2026-05-04 14:38 | 39.43117 | -74.94043 | 31232 ft | 430 kts | 230° |
| 2026-05-04 14:38 | 39.41034 | -74.96764 | 31555 ft | 430 kts | 230° |
| 2026-05-04 14:38 | 39.38936 | -74.99503 | 31888 ft | 429 kts | 230° |
| 2026-05-04 14:38 | 39.36841 | -75.02239 | 32164 ft | 429 kts | 230° |
| 2026-05-04 14:39 | 39.34738 | -75.04982 | 32524 ft | 427 kts | 230° |
| 2026-05-04 14:39 | 39.32653 | -75.07698 | 32809 ft | 426 kts | 230° |
| 2026-05-04 14:39 | 39.30575 | -75.10403 | 33113 ft | 425 kts | 230° |
| 2026-05-04 14:40 | 39.26310 | -75.15678 | 33667 ft | 425 kts | 227° |
| 2026-05-04 14:40 | 39.24119 | -75.18229 | 33947 ft | 423 kts | 227° |
| 2026-05-04 14:40 | 39.19713 | -75.23297 | 34014 ft | 425 kts | 227° |
| 2026-05-04 14:41 | 39.15310 | -75.28372 | 34019 ft | 426 kts | 227° |
| 2026-05-04 14:42 | 39.06523 | -75.38620 | 34020 ft | 425 kts | 226° |
| 2026-05-04 14:42 | 39.01512 | -75.42883 | 34020 ft | 439 kts | 210° |
| 2026-05-04 14:43 | 38.95616 | -75.45016 | 34010 ft | 449 kts | 196° |
| 2026-05-04 14:43 | 38.89364 | -75.46064 | 34010 ft | 452 kts | 192° |
| 2026-05-04 14:44 | 38.83136 | -75.46845 | 34023 ft | 451 kts | 192° |
| 2026-05-04 14:44 | 38.76892 | -75.47622 | 34030 ft | 452 kts | 192° |
| 2026-05-04 14:45 | 38.70609 | -75.48441 | 34033 ft | 453 kts | 192° |
| 2026-05-04 14:45 | 38.64381 | -75.49269 | 34037 ft | 452 kts | 192° |
| 2026-05-04 14:46 | 38.58153 | -75.50106 | 34045 ft | 450 kts | 192° |
| 2026-05-04 14:46 | 38.51896 | -75.50951 | 34041 ft | 452 kts | 193° |
| 2026-05-04 14:47 | 38.45671 | -75.51794 | 34042 ft | 452 kts | 192° |
| 2026-05-04 14:47 | 38.39419 | -75.52644 | 34039 ft | 451 kts | 193° |
| 2026-05-04 14:48 | 38.33397 | -75.54396 | 34041 ft | 438 kts | 209° |
| 2026-05-04 14:48 | 38.28154 | -75.58102 | 34051 ft | 428 kts | 219° |
| 2026-05-04 14:49 | 38.23220 | -75.62405 | 34048 ft | 429 kts | 221° |
| 2026-05-04 14:49 | 38.18367 | -75.66747 | 34046 ft | 429 kts | 221° |
| 2026-05-04 14:50 | 38.13459 | -75.71094 | 34058 ft | 429 kts | 220° |
| 2026-05-04 14:50 | 38.08532 | -75.75406 | 34051 ft | 430 kts | 220° |
| 2026-05-04 14:51 | 38.03632 | -75.79662 | 34052 ft | 430 kts | 220° |
| 2026-05-04 14:51 | 37.98692 | -75.83938 | 34066 ft | 428 kts | 220° |
| 2026-05-04 14:52 | 37.93784 | -75.88176 | 34054 ft | 431 kts | 220° |
| 2026-05-04 14:52 | 37.88821 | -75.92451 | 34055 ft | 430 kts | 220° |
| 2026-05-04 14:53 | 37.83869 | -75.96709 | 34061 ft | 430 kts | 220° |
| 2026-05-04 14:53 | 37.78937 | -76.00943 | 34062 ft | 432 kts | 220° |
| 2026-05-04 14:54 | 37.73978 | -76.05195 | 34062 ft | 429 kts | 220° |
| 2026-05-04 14:54 | 37.69014 | -76.09444 | 34061 ft | 431 kts | 220° |
| 2026-05-04 14:55 | 37.64027 | -76.13677 | 34062 ft | 432 kts | 219° |
| 2026-05-04 14:55 | 37.58732 | -76.17342 | 34066 ft | 437 kts | 210° |
| 2026-05-04 14:56 | 37.53019 | -76.20001 | 34067 ft | 443 kts | 205° |
| 2026-05-04 14:56 | 37.47145 | -76.22375 | 34068 ft | 442 kts | 204° |
| 2026-05-04 14:57 | 37.41256 | -76.24729 | 34068 ft | 444 kts | 204° |
| 2026-05-04 14:57 | 37.35410 | -76.27099 | 34068 ft | 442 kts | 205° |
| 2026-05-04 14:58 | 37.29540 | -76.29504 | 34074 ft | 443 kts | 205° |
| 2026-05-04 14:58 | 37.23700 | -76.31901 | 34077 ft | 441 kts | 204° |
| 2026-05-04 14:59 | 37.17840 | -76.34310 | 34079 ft | 443 kts | 205° |
| 2026-05-04 15:00 | 37.09080 | -76.37914 | 34081 ft | 441 kts | 204° |
| 2026-05-04 15:00 | 37.03256 | -76.40306 | 34085 ft | 442 kts | 204° |
| 2026-05-04 15:01 | 36.94493 | -76.43897 | 34086 ft | 442 kts | 205° |
| 2026-05-04 15:01 | 36.88618 | -76.46296 | 34084 ft | 443 kts | 205° |
| 2026-05-04 15:02 | 36.82792 | -76.48670 | 34082 ft | 442 kts | 205° |
| 2026-05-04 15:02 | 36.76953 | -76.51047 | 34083 ft | 441 kts | 205° |
| 2026-05-04 15:03 | 36.71154 | -76.53402 | 34084 ft | 438 kts | 206° |
| 2026-05-04 15:03 | 36.65311 | -76.55777 | 34092 ft | 439 kts | 206° |
| 2026-05-04 15:04 | 36.59532 | -76.58120 | 34094 ft | 438 kts | 206° |
| 2026-05-04 15:04 | 36.53744 | -76.60461 | 34095 ft | 437 kts | 206° |
| 2026-05-04 15:05 | 36.47931 | -76.62816 | 34097 ft | 439 kts | 207° |
| 2026-05-04 15:05 | 36.42135 | -76.65154 | 34094 ft | 437 kts | 206° |
| 2026-05-04 15:06 | 36.36360 | -76.67477 | 34086 ft | 435 kts | 206° |
| 2026-05-04 15:07 | 36.27641 | -76.70988 | 34630 ft | 438 kts | 206° |
| 2026-05-04 15:07 | 36.24775 | -76.72134 | 34964 ft | 435 kts | 206° |
| 2026-05-04 15:07 | 36.21886 | -76.73288 | 35309 ft | 430 kts | 207° |
| 2026-05-04 15:07 | 36.19036 | -76.74428 | 35481 ft | 431 kts | 206° |
| 2026-05-04 15:08 | 36.16212 | -76.75562 | 35640 ft | 432 kts | 206° |
| 2026-05-04 15:08 | 36.13323 | -76.76720 | 35808 ft | 432 kts | 206° |
| 2026-05-04 15:08 | 36.10465 | -76.77863 | 35989 ft | 430 kts | 206° |
| 2026-05-04 15:09 | 36.04764 | -76.80144 | 36092 ft | 431 kts | 206° |
| 2026-05-04 15:09 | 35.99075 | -76.82411 | 36105 ft | 429 kts | 206° |
| 2026-05-04 15:10 | 35.90556 | -76.85950 | 36104 ft | 424 kts | 211° |
| 2026-05-04 15:11 | 35.82665 | -76.90595 | 36102 ft | 419 kts | 216° |
| 2026-05-04 15:11 | 35.77485 | -76.93874 | 36112 ft | 417 kts | 216° |
| 2026-05-04 15:12 | 35.72311 | -76.97117 | 36103 ft | 418 kts | 215° |
| 2026-05-04 15:12 | 35.67122 | -77.00331 | 36108 ft | 419 kts | 215° |
| 2026-05-04 15:13 | 35.61917 | -77.03535 | 36111 ft | 419 kts | 215° |
| 2026-05-04 15:13 | 35.56684 | -77.06743 | 36111 ft | 419 kts | 215° |
| 2026-05-04 15:14 | 35.51449 | -77.09944 | 36116 ft | 420 kts | 215° |
| 2026-05-04 15:14 | 35.46223 | -77.13139 | 36108 ft | 420 kts | 215° |
| 2026-05-04 15:15 | 35.40990 | -77.16327 | 36110 ft | 419 kts | 215° |
| 2026-05-04 15:15 | 35.35751 | -77.19515 | 36114 ft | 419 kts | 215° |
| 2026-05-04 15:16 | 35.27906 | -77.24281 | 36109 ft | 419 kts | 215° |
| 2026-05-04 15:17 | 35.20111 | -77.29006 | 36112 ft | 420 kts | 215° |
| 2026-05-04 15:17 | 35.12278 | -77.33745 | 36119 ft | 419 kts | 215° |
| 2026-05-04 15:18 | 35.07047 | -77.36906 | 36114 ft | 420 kts | 215° |
| 2026-05-04 15:19 | 34.99197 | -77.41638 | 36120 ft | 419 kts | 215° |
| 2026-05-04 15:19 | 34.91353 | -77.46355 | 36123 ft | 421 kts | 214° |
| 2026-05-04 15:20 | 34.86108 | -77.49504 | 36124 ft | 419 kts | 214° |
| 2026-05-04 15:20 | 34.80859 | -77.52649 | 36128 ft | 420 kts | 214° |
| 2026-05-04 15:21 | 34.75558 | -77.55825 | 36127 ft | 422 kts | 214° |
| 2026-05-04 15:22 | 34.67683 | -77.60532 | 36125 ft | 421 kts | 214° |
| 2026-05-04 15:22 | 34.59774 | -77.65234 | 36125 ft | 421 kts | 213° |
| 2026-05-04 15:23 | 34.54217 | -77.67920 | 36123 ft | 433 kts | 204° |
| 2026-05-04 15:23 | 34.48321 | -77.69659 | 36124 ft | 438 kts | 200° |
| 2026-05-04 15:24 | 34.36330 | -77.72554 | 36121 ft | 438 kts | 199° |
| 2026-05-04 15:25 | 34.30376 | -77.74020 | 36124 ft | 438 kts | 199° |
| 2026-05-04 15:26 | 34.21419 | -77.76266 | 36125 ft | 437 kts | 199° |
| 2026-05-04 15:26 | 34.12478 | -77.78526 | 36121 ft | 438 kts | 199° |
| 2026-05-04 15:27 | 34.03531 | -77.80785 | 36123 ft | 437 kts | 199° |
| 2026-05-04 15:28 | 33.94606 | -77.83034 | 36122 ft | 435 kts | 199° |
| 2026-05-04 15:29 | 33.85681 | -77.85279 | 36118 ft | 437 kts | 199° |
| 2026-05-04 15:30 | 33.65138 | -77.91561 | 36129 ft | 433 kts | 204° |
| 2026-05-04 15:31 | 33.56459 | -77.94589 | 36129 ft | 433 kts | 203° |
| 2026-05-04 15:32 | 33.41935 | -77.99534 | 36133 ft | 433 kts | 203° |
| 2026-05-04 15:34 | 33.27460 | -78.04411 | 36135 ft | 432 kts | 203° |
| 2026-05-04 15:34 | 33.18731 | -78.07342 | 36141 ft | 432 kts | 203° |
| 2026-05-04 15:35 | 33.10048 | -78.10253 | 36151 ft | 433 kts | 203° |
| 2026-05-04 15:36 | 33.01381 | -78.13153 | 36148 ft | 433 kts | 203° |
| 2026-05-04 15:36 | 32.95584 | -78.15091 | 36151 ft | 432 kts | 203° |
| 2026-05-04 15:37 | 32.89800 | -78.17017 | 36153 ft | 432 kts | 203° |
| 2026-05-04 15:37 | 32.84019 | -78.18942 | 36150 ft | 431 kts | 203° |
| 2026-05-04 15:38 | 32.78236 | -78.20866 | 36147 ft | 432 kts | 203° |
| 2026-05-04 15:38 | 32.72449 | -78.22789 | 36147 ft | 431 kts | 203° |
| 2026-05-04 15:39 | 32.66651 | -78.24716 | 36150 ft | 433 kts | 203° |
| 2026-05-04 15:40 | 32.57981 | -78.27583 | 36146 ft | 432 kts | 203° |
| 2026-05-04 15:40 | 32.52158 | -78.29509 | 36146 ft | 431 kts | 203° |
| 2026-05-04 15:41 | 32.46400 | -78.31409 | 36152 ft | 431 kts | 203° |
| 2026-05-04 15:41 | 32.40591 | -78.33327 | 36153 ft | 432 kts | 203° |
| 2026-05-04 15:42 | 32.34861 | -78.35212 | 36153 ft | 429 kts | 203° |
| 2026-05-04 15:42 | 32.29065 | -78.37118 | 36151 ft | 431 kts | 203° |
| 2026-05-04 15:43 | 32.23326 | -78.39004 | 36153 ft | 430 kts | 203° |
| 2026-05-04 15:43 | 32.17545 | -78.40897 | 36153 ft | 431 kts | 203° |
| 2026-05-04 15:44 | 32.11764 | -78.42790 | 36144 ft | 430 kts | 203° |
| 2026-05-04 15:44 | 32.06010 | -78.44672 | 36148 ft | 430 kts | 203° |
| 2026-05-04 15:45 | 32.00249 | -78.46555 | 36155 ft | 429 kts | 203° |
| 2026-05-04 15:45 | 31.94487 | -78.48433 | 36154 ft | 429 kts | 203° |
| 2026-05-04 15:46 | 31.88723 | -78.50313 | 36142 ft | 429 kts | 203° |
| 2026-05-04 15:46 | 31.82995 | -78.52180 | 36152 ft | 429 kts | 203° |
| 2026-05-04 15:47 | 31.77210 | -78.54060 | 36148 ft | 429 kts | 203° |
| 2026-05-04 15:47 | 31.71477 | -78.55919 | 36142 ft | 429 kts | 203° |
| 2026-05-04 15:48 | 31.65724 | -78.57783 | 36149 ft | 431 kts | 203° |
| 2026-05-04 15:48 | 31.57032 | -78.60595 | 36143 ft | 428 kts | 203° |
| 2026-05-04 15:49 | 31.51315 | -78.62465 | 36148 ft | 429 kts | 204° |
| 2026-05-04 15:49 | 31.45581 | -78.64430 | 36136 ft | 428 kts | 204° |
| 2026-05-04 15:50 | 31.39870 | -78.66406 | 36143 ft | 431 kts | 204° |
| 2026-05-04 15:50 | 31.34109 | -78.68390 | 36135 ft | 428 kts | 204° |
| 2026-05-04 15:51 | 31.28373 | -78.70353 | 36140 ft | 430 kts | 204° |
| 2026-05-04 15:51 | 31.22663 | -78.72300 | 36143 ft | 426 kts | 204° |
| 2026-05-04 15:52 | 31.16965 | -78.74238 | 36132 ft | 426 kts | 204° |
| 2026-05-04 15:52 | 31.11256 | -78.76183 | 36132 ft | 427 kts | 204° |
| 2026-05-04 15:53 | 31.05538 | -78.78130 | 36140 ft | 429 kts | 204° |
| 2026-05-04 15:53 | 30.99795 | -78.80077 | 36137 ft | 427 kts | 204° |
| 2026-05-04 15:54 | 30.94108 | -78.82004 | 36137 ft | 426 kts | 204° |
| 2026-05-04 15:54 | 30.88423 | -78.83931 | 36131 ft | 428 kts | 204° |
| 2026-05-04 15:55 | 30.82713 | -78.85863 | 36132 ft | 429 kts | 204° |
| 2026-05-04 15:55 | 30.76997 | -78.87789 | 36132 ft | 426 kts | 204° |
| 2026-05-04 15:56 | 30.71276 | -78.89719 | 36136 ft | 429 kts | 204° |
| 2026-05-04 15:56 | 30.65556 | -78.91645 | 36124 ft | 427 kts | 204° |
| 2026-05-04 15:57 | 30.59812 | -78.93575 | 36131 ft | 429 kts | 205° |
| 2026-05-04 15:57 | 30.54077 | -78.95503 | 36130 ft | 428 kts | 205° |
| 2026-05-04 15:58 | 30.48359 | -78.97422 | 36131 ft | 429 kts | 205° |
| 2026-05-04 15:58 | 30.42637 | -78.99341 | 36129 ft | 429 kts | 205° |
| 2026-05-04 15:59 | 30.36983 | -79.01540 | 36132 ft | 426 kts | 209° |
| 2026-05-04 15:59 | 30.31516 | -79.03992 | 36131 ft | 421 kts | 210° |
| 2026-05-04 16:00 | 30.26021 | -79.06477 | 36132 ft | 424 kts | 210° |
| 2026-05-04 16:00 | 30.20527 | -79.08922 | 36129 ft | 425 kts | 210° |
| 2026-05-04 16:01 | 30.14967 | -79.11365 | 36124 ft | 426 kts | 210° |
| 2026-05-04 16:01 | 30.09432 | -79.13776 | 36134 ft | 426 kts | 210° |
| 2026-05-04 16:02 | 30.03872 | -79.16195 | 36131 ft | 429 kts | 210° |
| 2026-05-04 16:03 | 29.95516 | -79.19817 | 36132 ft | 426 kts | 210° |
| 2026-05-04 16:03 | 29.89977 | -79.22215 | 36128 ft | 427 kts | 210° |
| 2026-05-04 16:04 | 29.84411 | -79.24622 | 36130 ft | 427 kts | 210° |
| 2026-05-04 16:04 | 29.76089 | -79.28215 | 36127 ft | 426 kts | 210° |
| 2026-05-04 16:05 | 29.70521 | -79.30618 | 36124 ft | 428 kts | 210° |
| 2026-05-04 16:06 | 29.62137 | -79.34226 | 36123 ft | 427 kts | 210° |
| 2026-05-04 16:07 | 29.50966 | -79.39024 | 36121 ft | 428 kts | 210° |
| 2026-05-04 16:08 | 29.39824 | -79.43797 | 36121 ft | 428 kts | 210° |
| 2026-05-04 16:09 | 29.25834 | -79.49779 | 36112 ft | 429 kts | 210° |
| 2026-05-04 16:10 | 29.14733 | -79.54510 | 36114 ft | 429 kts | 210° |
| 2026-05-04 16:11 | 29.04128 | -79.60287 | 36109 ft | 418 kts | 220° |
| 2026-05-04 16:12 | 28.89229 | -79.70702 | 36098 ft | 416 kts | 219° |
| 2026-05-04 16:13 | 28.79307 | -79.77570 | 36098 ft | 418 kts | 219° |
| 2026-05-04 16:14 | 28.69365 | -79.84410 | 36096 ft | 419 kts | 219° |
| 2026-05-04 16:16 | 28.56937 | -79.92937 | 36092 ft | 418 kts | 219° |
| 2026-05-04 16:17 | 28.44485 | -80.01457 | 36092 ft | 416 kts | 219° |
| 2026-05-04 16:18 | 28.34697 | -80.08140 | 36090 ft | 417 kts | 219° |
| 2026-05-04 16:19 | 28.22284 | -80.16590 | 36090 ft | 415 kts | 219° |
| 2026-05-04 16:20 | 28.09856 | -80.25032 | 36091 ft | 415 kts | 219° |
| 2026-05-04 16:22 | 27.97460 | -80.33427 | 36092 ft | 414 kts | 218° |
| 2026-05-04 16:23 | 27.83041 | -80.43158 | 36076 ft | 412 kts | 219° |
| 2026-05-04 16:24 | 27.72930 | -80.49496 | 36071 ft | 422 kts | 208° |
| 2026-05-04 16:25 | 27.67105 | -80.51083 | 36076 ft | 437 kts | 198° |
| 2026-05-04 16:26 | 27.45824 | -80.53866 | 36072 ft | 440 kts | 196° |
| 2026-05-04 16:28 | 27.30662 | -80.55935 | 36060 ft | 438 kts | 196° |
| 2026-05-04 16:29 | 27.09447 | -80.58860 | 36053 ft | 440 kts | 196° |
| 2026-05-04 16:31 | 26.94270 | -80.60943 | 36052 ft | 438 kts | 196° |
| 2026-05-04 16:32 | 26.76123 | -80.63431 | 36040 ft | 438 kts | 196° |
| 2026-05-04 16:33 | 26.64012 | -80.65083 | 36037 ft | 438 kts | 196° |
| 2026-05-04 16:34 | 26.54915 | -80.66324 | 36027 ft | 435 kts | 195° |
| 2026-05-04 16:35 | 26.36824 | -80.68784 | 36014 ft | 434 kts | 195° |
| 2026-05-04 16:36 | 26.27860 | -80.70003 | 36022 ft | 438 kts | 195° |
| 2026-05-04 16:37 | 26.18766 | -80.71236 | 36009 ft | 436 kts | 195° |
| 2026-05-04 16:38 | 26.06708 | -80.72869 | 36014 ft | 436 kts | 195° |
| 2026-05-04 16:39 | 25.91623 | -80.74903 | 36010 ft | 436 kts | 195° |
| 2026-05-04 16:40 | 25.79556 | -80.76525 | 36012 ft | 435 kts | 195° |
| 2026-05-04 16:41 | 25.64859 | -80.79807 | 36004 ft | 426 kts | 201° |
| 2026-05-04 16:43 | 25.50325 | -80.83390 | 36005 ft | 426 kts | 201° |
| 2026-05-04 16:43 | 25.41614 | -80.85481 | 36008 ft | 429 kts | 201° |
| 2026-05-04 16:45 | 25.24166 | -80.89635 | 36007 ft | 423 kts | 201° |
| 2026-05-04 16:46 | 25.09770 | -80.93054 | 36006 ft | 421 kts | 201° |
| 2026-05-04 16:47 | 24.98280 | -80.95777 | 36004 ft | 421 kts | 201° |
| 2026-05-04 16:48 | 24.86731 | -80.98516 | 36014 ft | 421 kts | 201° |
| 2026-05-04 16:49 | 24.75163 | -81.00954 | 36023 ft | 433 kts | 195° |
| 2026-05-04 16:50 | 24.63070 | -81.01525 | 36019 ft | 437 kts | 191° |
| 2026-05-04 16:51 | 24.53922 | -81.01764 | 36010 ft | 440 kts | 190° |
| 2026-05-04 16:52 | 24.41661 | -81.01608 | 35987 ft | 439 kts | 188° |
| 2026-05-04 16:53 | 24.32442 | -81.01485 | 35989 ft | 442 kts | 189° |
| 2026-05-04 16:54 | 24.20260 | -81.01365 | 35987 ft | 439 kts | 188° |
| 2026-05-04 16:55 | 24.01811 | -81.01209 | 35986 ft | 437 kts | 188° |
| 2026-05-04 16:56 | 23.86416 | -81.00682 | 35983 ft | 443 kts | 186° |
| 2026-05-04 16:57 | 23.77203 | -81.00249 | 35984 ft | 440 kts | 187° |
| 2026-05-04 16:58 | 23.64855 | -80.99719 | 35977 ft | 445 kts | 186° |
| 2026-05-04 17:00 | 23.46418 | -80.98939 | 35976 ft | 445 kts | 186° |
| 2026-05-04 17:01 | 23.30965 | -80.98290 | 35973 ft | 443 kts | 186° |
| 2026-05-04 17:02 | 23.18656 | -80.97773 | 35971 ft | 445 kts | 186° |
| 2026-05-04 17:03 | 23.09387 | -80.97380 | 35967 ft | 444 kts | 186° |
| 2026-05-04 17:03 | 23.00309 | -80.97890 | 35968 ft | 427 kts | 201° |
| 2026-05-04 17:04 | 22.89229 | -81.02010 | 35972 ft | 419 kts | 208° |
| 2026-05-04 17:05 | 22.78281 | -81.06524 | 35978 ft | 419 kts | 208° |
| 2026-05-04 17:06 | 22.70064 | -81.09833 | 35984 ft | 420 kts | 207° |
| 2026-05-04 17:07 | 22.62754 | -81.12755 | 35983 ft | 422 kts | 208° |
| 2026-05-04 17:07 | 22.56298 | -81.15331 | 35984 ft | 420 kts | 207° |
| 2026-05-04 17:08 | 22.48042 | -81.18621 | 35986 ft | 422 kts | 208° |
| 2026-05-04 17:09 | 22.42508 | -81.20825 | 35989 ft | 423 kts | 207° |
| 2026-05-04 17:09 | 22.36993 | -81.23017 | 35991 ft | 421 kts | 207° |
| 2026-05-04 17:10 | 22.23216 | -81.28490 | 36000 ft | 422 kts | 207° |
| 2026-05-04 17:11 | 22.17682 | -81.30682 | 36002 ft | 423 kts | 207° |
| 2026-05-04 17:12 | 22.09375 | -81.33972 | 36003 ft | 423 kts | 207° |
| 2026-05-04 17:13 | 21.95564 | -81.39432 | 36007 ft | 422 kts | 207° |
| 2026-05-04 17:14 | 21.84453 | -81.43821 | 36009 ft | 424 kts | 207° |
| 2026-05-04 17:15 | 21.76133 | -81.47100 | 36008 ft | 426 kts | 207° |
| 2026-05-04 17:16 | 21.65009 | -81.51478 | 36007 ft | 426 kts | 207° |
| 2026-05-04 17:17 | 21.54350 | -81.56692 | 36009 ft | 419 kts | 215° |
| 2026-05-04 17:18 | 21.44208 | -81.62807 | 36004 ft | 419 kts | 215° |
| 2026-05-04 17:19 | 21.33957 | -81.68896 | 36010 ft | 420 kts | 214° |
| 2026-05-04 17:20 | 21.23713 | -81.74928 | 36005 ft | 420 kts | 214° |
| 2026-05-04 17:20 | 21.16031 | -81.79441 | 36009 ft | 420 kts | 214° |
| 2026-05-04 17:21 | 21.05726 | -81.85487 | 36005 ft | 421 kts | 214° |
| 2026-05-04 17:22 | 21.00591 | -81.88496 | 36008 ft | 421 kts | 214° |
| 2026-05-04 17:23 | 20.90311 | -81.94513 | 36007 ft | 421 kts | 214° |
| 2026-05-04 17:24 | 20.82560 | -81.99043 | 36007 ft | 422 kts | 214° |
| 2026-05-04 17:25 | 20.72264 | -82.05051 | 36008 ft | 422 kts | 214° |
| 2026-05-04 17:26 | 20.61918 | -82.11083 | 36008 ft | 424 kts | 214° |
| 2026-05-04 17:27 | 20.48987 | -82.18603 | 36007 ft | 423 kts | 214° |
| 2026-05-04 17:28 | 20.38615 | -82.24625 | 36008 ft | 425 kts | 214° |
| 2026-05-04 17:29 | 20.23047 | -82.33646 | 36008 ft | 425 kts | 214° |
| 2026-05-04 17:31 | 20.10052 | -82.41128 | 35999 ft | 425 kts | 212° |
| 2026-05-04 17:32 | 19.96059 | -82.46912 | 35996 ft | 434 kts | 206° |
| 2026-05-04 17:33 | 19.84726 | -82.51288 | 35994 ft | 433 kts | 206° |
| 2026-05-04 17:34 | 19.73417 | -82.55723 | 35993 ft | 432 kts | 206° |
| 2026-05-04 17:35 | 19.59256 | -82.61288 | 35992 ft | 432 kts | 206° |
| 2026-05-04 17:36 | 19.53621 | -82.63501 | 35992 ft | 433 kts | 206° |
| 2026-05-04 17:36 | 19.47988 | -82.65710 | 35989 ft | 432 kts | 206° |
| 2026-05-04 17:37 | 19.42325 | -82.67929 | 35987 ft | 434 kts | 206° |
| 2026-05-04 17:37 | 19.36630 | -82.70160 | 35986 ft | 434 kts | 206° |
| 2026-05-04 17:38 | 19.30984 | -82.72369 | 35987 ft | 433 kts | 205° |
| 2026-05-04 17:38 | 19.25321 | -82.74585 | 35989 ft | 435 kts | 206° |
| 2026-05-04 17:39 | 19.16781 | -82.77921 | 35988 ft | 435 kts | 205° |
| 2026-05-04 17:39 | 19.11117 | -82.80131 | 35987 ft | 434 kts | 205° |
| 2026-05-04 17:40 | 19.05432 | -82.82347 | 35988 ft | 435 kts | 205° |
| 2026-05-04 17:40 | 18.99755 | -82.84561 | 35987 ft | 434 kts | 205° |
| 2026-05-04 17:41 | 18.94091 | -82.86768 | 35988 ft | 435 kts | 205° |
| 2026-05-04 17:41 | 18.88371 | -82.88994 | 35987 ft | 435 kts | 205° |
| 2026-05-04 17:42 | 18.82708 | -82.91196 | 35987 ft | 434 kts | 205° |
| 2026-05-04 17:42 | 18.77016 | -82.93407 | 35987 ft | 435 kts | 205° |
| 2026-05-04 17:43 | 18.71328 | -82.95616 | 35988 ft | 436 kts | 205° |
| 2026-05-04 17:43 | 18.65634 | -82.97826 | 35987 ft | 436 kts | 205° |
| 2026-05-04 17:44 | 18.59960 | -83.00026 | 35988 ft | 436 kts | 205° |
| 2026-05-04 17:44 | 18.54257 | -83.02236 | 35988 ft | 436 kts | 205° |
| 2026-05-04 17:45 | 18.48532 | -83.04452 | 35987 ft | 436 kts | 205° |
| 2026-05-04 17:45 | 18.42867 | -83.06644 | 35988 ft | 435 kts | 205° |
| 2026-05-04 17:46 | 18.37181 | -83.08843 | 35987 ft | 435 kts | 205° |
| 2026-05-04 17:46 | 18.31449 | -83.11059 | 35986 ft | 437 kts | 205° |
| 2026-05-04 17:47 | 18.25750 | -83.13259 | 35987 ft | 437 kts | 205° |
| 2026-05-04 17:47 | 18.20028 | -83.15466 | 35984 ft | 436 kts | 205° |
| 2026-05-04 17:48 | 18.14315 | -83.17667 | 35986 ft | 436 kts | 205° |
| 2026-05-04 17:48 | 18.08637 | -83.19856 | 35982 ft | 437 kts | 204° |
| 2026-05-04 17:49 | 18.02926 | -83.22055 | 35983 ft | 437 kts | 204° |
| 2026-05-04 17:49 | 17.97167 | -83.24271 | 35982 ft | 437 kts | 204° |
| 2026-05-04 17:50 | 17.91471 | -83.26462 | 35982 ft | 438 kts | 204° |
| 2026-05-04 17:50 | 17.85718 | -83.28673 | 35979 ft | 439 kts | 204° |
| 2026-05-04 17:51 | 17.79964 | -83.30881 | 35977 ft | 439 kts | 204° |
| 2026-05-04 17:51 | 17.74227 | -83.33083 | 35969 ft | 438 kts | 204° |
| 2026-05-04 17:52 | 17.68506 | -83.35276 | 35966 ft | 438 kts | 204° |
| 2026-05-04 17:52 | 17.62774 | -83.37472 | 35966 ft | 438 kts | 204° |
| 2026-05-04 17:53 | 17.57033 | -83.39671 | 35966 ft | 439 kts | 204° |
| 2026-05-04 17:53 | 17.51287 | -83.41869 | 35966 ft | 439 kts | 204° |
| 2026-05-04 17:54 | 17.45571 | -83.44057 | 35966 ft | 439 kts | 204° |
| 2026-05-04 17:54 | 17.39811 | -83.46259 | 35966 ft | 440 kts | 204° |
| 2026-05-04 17:55 | 17.34072 | -83.48449 | 35969 ft | 440 kts | 204° |
| 2026-05-04 17:55 | 17.28284 | -83.50658 | 35975 ft | 438 kts | 204° |
| 2026-05-04 17:56 | 17.22580 | -83.52834 | 35980 ft | 440 kts | 204° |
| 2026-05-04 17:56 | 17.16806 | -83.55035 | 35983 ft | 439 kts | 204° |
| 2026-05-04 17:57 | 17.11064 | -83.57221 | 35987 ft | 440 kts | 204° |
| 2026-05-04 17:57 | 17.05322 | -83.59406 | 35987 ft | 439 kts | 204° |
| 2026-05-04 17:58 | 16.99547 | -83.61603 | 35986 ft | 441 kts | 204° |
| 2026-05-04 17:58 | 16.93763 | -83.63802 | 35985 ft | 440 kts | 204° |
| 2026-05-04 17:59 | 16.88015 | -83.65986 | 35985 ft | 441 kts | 203° |
| 2026-05-04 18:00 | 16.79357 | -83.69273 | 35979 ft | 440 kts | 203° |
| 2026-05-04 18:00 | 16.73592 | -83.71459 | 35982 ft | 441 kts | 203° |
| 2026-05-04 18:01 | 16.67814 | -83.73649 | 35982 ft | 441 kts | 203° |
| 2026-05-04 18:01 | 16.62054 | -83.75830 | 35980 ft | 442 kts | 203° |
| 2026-05-04 18:02 | 16.53340 | -83.79129 | 35976 ft | 443 kts | 202° |
| 2026-05-04 18:02 | 16.47546 | -83.81319 | 35975 ft | 442 kts | 203° |
| 2026-05-04 18:03 | 16.41742 | -83.83511 | 35975 ft | 442 kts | 203° |
| 2026-05-04 18:03 | 16.35954 | -83.85698 | 35975 ft | 442 kts | 203° |
| 2026-05-04 18:04 | 16.30167 | -83.87882 | 35973 ft | 443 kts | 203° |
| 2026-05-04 18:05 | 16.21475 | -83.91160 | 35973 ft | 442 kts | 202° |
| 2026-05-04 18:05 | 16.15651 | -83.93355 | 35969 ft | 444 kts | 202° |
| 2026-05-04 18:06 | 16.06961 | -83.96626 | 35968 ft | 443 kts | 202° |
| 2026-05-04 18:06 | 16.01130 | -83.98820 | 35966 ft | 444 kts | 202° |
| 2026-05-04 18:07 | 15.95300 | -84.01012 | 35967 ft | 444 kts | 202° |
| 2026-05-04 18:07 | 15.89454 | -84.03209 | 35959 ft | 445 kts | 202° |
| 2026-05-04 18:08 | 15.83615 | -84.05402 | 35959 ft | 445 kts | 202° |
| 2026-05-04 18:08 | 15.77779 | -84.07592 | 35958 ft | 445 kts | 202° |
| 2026-05-04 18:09 | 15.66139 | -84.11957 | 35953 ft | 446 kts | 202° |
| 2026-05-04 18:10 | 15.60271 | -84.14155 | 35954 ft | 446 kts | 202° |
| 2026-05-04 18:10 | 15.54447 | -84.16335 | 35946 ft | 445 kts | 202° |
| 2026-05-04 18:11 | 15.48612 | -84.18518 | 35948 ft | 446 kts | 202° |
| 2026-05-04 18:11 | 15.42766 | -84.20705 | 35947 ft | 445 kts | 202° |
| 2026-05-04 18:12 | 15.36899 | -84.22897 | 35949 ft | 445 kts | 202° |
| 2026-05-04 18:12 | 15.31096 | -84.25064 | 35948 ft | 444 kts | 202° |
| 2026-05-04 18:13 | 15.25229 | -84.27254 | 35946 ft | 446 kts | 202° |
| 2026-05-04 18:14 | 15.16461 | -84.30525 | 35943 ft | 446 kts | 202° |
| 2026-05-04 18:14 | 15.10629 | -84.32699 | 35945 ft | 446 kts | 202° |
| 2026-05-04 18:15 | 14.98873 | -84.37076 | 35941 ft | 447 kts | 201° |
| 2026-05-04 18:16 | 14.93032 | -84.39249 | 35939 ft | 446 kts | 201° |
| 2026-05-04 18:16 | 14.87185 | -84.41424 | 35931 ft | 447 kts | 201° |
| 2026-05-04 18:17 | 14.78383 | -84.44698 | 35927 ft | 448 kts | 201° |
| 2026-05-04 18:18 | 14.69558 | -84.47974 | 35930 ft | 447 kts | 201° |
| 2026-05-04 18:18 | 14.63702 | -84.50144 | 35932 ft | 447 kts | 201° |
| 2026-05-04 18:19 | 14.54935 | -84.53393 | 35939 ft | 446 kts | 201° |
| 2026-05-04 18:19 | 14.49053 | -84.55572 | 35945 ft | 447 kts | 201° |
| 2026-05-04 18:20 | 14.43193 | -84.57741 | 35940 ft | 447 kts | 201° |
| 2026-05-04 18:20 | 14.37338 | -84.59907 | 35945 ft | 447 kts | 201° |
| 2026-05-04 18:21 | 14.31453 | -84.62084 | 35945 ft | 447 kts | 201° |
| 2026-05-04 18:21 | 14.25612 | -84.64243 | 35950 ft | 447 kts | 201° |
| 2026-05-04 18:22 | 14.19733 | -84.66415 | 35959 ft | 447 kts | 201° |
| 2026-05-04 18:22 | 14.13879 | -84.68577 | 35971 ft | 447 kts | 201° |
| 2026-05-04 18:23 | 14.07996 | -84.70748 | 35985 ft | 447 kts | 201° |
| 2026-05-04 18:23 | 14.02220 | -84.73005 | 36001 ft | 446 kts | 204° |
| 2026-05-04 18:24 | 13.96563 | -84.75665 | 36013 ft | 446 kts | 206° |
| 2026-05-04 18:24 | 13.90958 | -84.78432 | 36005 ft | 445 kts | 207° |
| 2026-05-04 18:25 | 13.85333 | -84.81194 | 36006 ft | 445 kts | 206° |
| 2026-05-04 18:25 | 13.79714 | -84.83924 | 36020 ft | 445 kts | 206° |
| 2026-05-04 18:26 | 13.74105 | -84.86626 | 36026 ft | 446 kts | 206° |
| 2026-05-04 18:26 | 13.68478 | -84.89326 | 36022 ft | 446 kts | 206° |
| 2026-05-04 18:27 | 13.62841 | -84.92026 | 36009 ft | 447 kts | 206° |
| 2026-05-04 18:27 | 13.57174 | -84.94736 | 35992 ft | 445 kts | 206° |
| 2026-05-04 18:28 | 13.51538 | -84.97430 | 35961 ft | 445 kts | 206° |
| 2026-05-04 18:28 | 13.45928 | -85.00112 | 35931 ft | 445 kts | 206° |
| 2026-05-04 18:29 | 13.40304 | -85.02799 | 35933 ft | 446 kts | 206° |
| 2026-05-04 18:29 | 13.34651 | -85.05498 | 35928 ft | 446 kts | 206° |
| 2026-05-04 18:30 | 13.26192 | -85.09534 | 35925 ft | 447 kts | 206° |
| 2026-05-04 18:31 | 13.20570 | -85.12215 | 35937 ft | 446 kts | 206° |
| 2026-05-04 18:31 | 13.14932 | -85.14901 | 35959 ft | 447 kts | 206° |
| 2026-05-04 18:32 | 13.09282 | -85.17592 | 35984 ft | 446 kts | 206° |
| 2026-05-04 18:32 | 13.03626 | -85.20284 | 36016 ft | 446 kts | 206° |
| 2026-05-04 18:33 | 12.98014 | -85.22955 | 36042 ft | 447 kts | 206° |
| 2026-05-04 18:33 | 12.92329 | -85.25660 | 36031 ft | 447 kts | 206° |
| 2026-05-04 18:34 | 12.86665 | -85.28352 | 36010 ft | 449 kts | 206° |
| 2026-05-04 18:34 | 12.81000 | -85.31044 | 35986 ft | 449 kts | 206° |
| 2026-05-04 18:35 | 12.75318 | -85.33742 | 35967 ft | 449 kts | 206° |
| 2026-05-04 18:35 | 12.69650 | -85.36432 | 35968 ft | 449 kts | 206° |
| 2026-05-04 18:36 | 12.63963 | -85.39128 | 35981 ft | 448 kts | 206° |
| 2026-05-04 18:36 | 12.58318 | -85.41806 | 35988 ft | 449 kts | 206° |
| 2026-05-04 18:37 | 12.52646 | -85.44495 | 36000 ft | 448 kts | 206° |
| 2026-05-04 18:37 | 12.46969 | -85.47185 | 36009 ft | 449 kts | 206° |
| 2026-05-04 18:38 | 12.41284 | -85.49877 | 36004 ft | 449 kts | 206° |
| 2026-05-04 18:38 | 12.35598 | -85.52567 | 35986 ft | 451 kts | 206° |
| 2026-05-04 18:39 | 12.29900 | -85.55262 | 35972 ft | 451 kts | 206° |
| 2026-05-04 18:39 | 12.27055 | -85.56607 | 35851 ft | 450 kts | 206° |
| 2026-05-04 18:39 | 12.24192 | -85.57960 | 35395 ft | 445 kts | 206° |
| 2026-05-04 18:39 | 12.21413 | -85.59273 | 34768 ft | 443 kts | 206° |
| 2026-05-04 18:40 | 12.18619 | -85.60593 | 34108 ft | 441 kts | 206° |
| 2026-05-04 18:40 | 12.15818 | -85.61917 | 33411 ft | 440 kts | 206° |
| 2026-05-04 18:40 | 12.13053 | -85.63223 | 32666 ft | 441 kts | 206° |
| 2026-05-04 18:40 | 12.10276 | -85.64535 | 31948 ft | 441 kts | 206° |
| 2026-05-04 18:41 | 12.07462 | -85.65865 | 31412 ft | 437 kts | 206° |
| 2026-05-04 18:41 | 12.04717 | -85.67160 | 30932 ft | 433 kts | 205° |
| 2026-05-04 18:41 | 12.02024 | -85.68431 | 30432 ft | 429 kts | 205° |
| 2026-05-04 18:41 | 11.99327 | -85.69704 | 29918 ft | 425 kts | 205° |
| 2026-05-04 18:42 | 11.96651 | -85.70965 | 29407 ft | 422 kts | 205° |
| 2026-05-04 18:42 | 11.93982 | -85.72223 | 28904 ft | 418 kts | 205° |
| 2026-05-04 18:42 | 11.91334 | -85.73470 | 28406 ft | 414 kts | 205° |
| 2026-05-04 18:42 | 11.88749 | -85.74689 | 27918 ft | 411 kts | 205° |
| 2026-05-04 18:43 | 11.86150 | -85.75915 | 27418 ft | 408 kts | 205° |
| 2026-05-04 18:43 | 11.83577 | -85.77128 | 26925 ft | 405 kts | 205° |
| 2026-05-04 18:43 | 11.81032 | -85.78328 | 26430 ft | 403 kts | 205° |
| 2026-05-04 18:43 | 11.78455 | -85.79542 | 25939 ft | 413 kts | 205° |
| 2026-05-04 18:44 | 11.75793 | -85.80798 | 25412 ft | 424 kts | 205° |
| 2026-05-04 18:44 | 11.74003 | -85.81641 | 25057 ft | 423 kts | 205° |
| 2026-05-04 18:44 | 11.70475 | -85.83302 | 24359 ft | 418 kts | 205° |
| 2026-05-04 18:44 | 11.67833 | -85.84545 | 23837 ft | 414 kts | 205° |
| 2026-05-04 18:45 | 11.65225 | -85.85771 | 23314 ft | 411 kts | 205° |
| 2026-05-04 18:45 | 11.62647 | -85.86983 | 22800 ft | 407 kts | 205° |
| 2026-05-04 18:45 | 11.60087 | -85.88187 | 22288 ft | 404 kts | 206° |
| 2026-05-04 18:45 | 11.57533 | -85.89361 | 21787 ft | 401 kts | 204° |
| 2026-05-04 18:46 | 11.54928 | -85.90335 | 21273 ft | 398 kts | 195° |
| 2026-05-04 18:46 | 11.52207 | -85.90781 | 20776 ft | 395 kts | 182° |
| 2026-05-04 18:46 | 11.49476 | -85.90633 | 20258 ft | 392 kts | 171° |
| 2026-05-04 18:46 | 11.46807 | -85.90019 | 19734 ft | 390 kts | 162° |
| 2026-05-04 18:47 | 11.44231 | -85.89150 | 19173 ft | 386 kts | 159° |
| 2026-05-04 18:47 | 11.41745 | -85.88191 | 18492 ft | 380 kts | 157° |
| 2026-05-04 18:47 | 11.39326 | -85.87198 | 17924 ft | 373 kts | 156° |
| 2026-05-04 18:47 | 11.36957 | -85.86208 | 17395 ft | 364 kts | 155° |
| 2026-05-04 18:48 | 11.34619 | -85.85232 | 16891 ft | 355 kts | 155° |
| 2026-05-04 18:48 | 11.32375 | -85.84305 | 16430 ft | 347 kts | 156° |
| 2026-05-04 18:48 | 11.30127 | -85.83384 | 15954 ft | 343 kts | 156° |
| 2026-05-04 18:48 | 11.27887 | -85.82470 | 15478 ft | 355 kts | 156° |
| 2026-05-04 18:49 | 11.25581 | -85.81533 | 14988 ft | 357 kts | 156° |
| 2026-05-04 18:49 | 11.23287 | -85.80634 | 14525 ft | 352 kts | 159° |
| 2026-05-04 18:49 | 11.20922 | -85.79923 | 14073 ft | 349 kts | 167° |
| 2026-05-04 18:49 | 11.18530 | -85.79609 | 14006 ft | 346 kts | 175° |
| 2026-05-04 18:50 | 11.16084 | -85.79527 | 13994 ft | 354 kts | 178° |
| 2026-05-04 18:50 | 11.13609 | -85.79537 | 13999 ft | 353 kts | 179° |
| 2026-05-04 18:50 | 11.11163 | -85.79572 | 13977 ft | 353 kts | 180° |
| 2026-05-04 18:50 | 11.08693 | -85.79602 | 13733 ft | 352 kts | 179° |
| 2026-05-04 18:51 | 11.06256 | -85.79618 | 13396 ft | 346 kts | 179° |
| 2026-05-04 18:51 | 11.03846 | -85.79619 | 12962 ft | 343 kts | 178° |
| 2026-05-04 18:51 | 11.01455 | -85.79579 | 12480 ft | 341 kts | 177° |
| 2026-05-04 18:51 | 10.99088 | -85.79511 | 12004 ft | 339 kts | 176° |
| 2026-05-04 18:52 | 10.96740 | -85.79434 | 11529 ft | 337 kts | 176° |
| 2026-05-04 18:52 | 10.94400 | -85.79363 | 11059 ft | 335 kts | 176° |
| 2026-05-04 18:52 | 10.92080 | -85.79295 | 10591 ft | 333 kts | 176° |
| 2026-05-04 18:52 | 10.89790 | -85.79232 | 10267 ft | 326 kts | 175° |
| 2026-05-04 18:53 | 10.87532 | -85.79173 | 10128 ft | 313 kts | 175° |
| 2026-05-04 18:53 | 10.85417 | -85.79118 | 9926 ft | 304 kts | 175° |
| 2026-05-04 18:53 | 10.83276 | -85.79060 | 9504 ft | 303 kts | 174° |
| 2026-05-04 18:53 | 10.81184 | -85.79001 | 9104 ft | 302 kts | 174° |
| 2026-05-04 18:54 | 10.79089 | -85.78943 | 8703 ft | 300 kts | 175° |
| 2026-05-04 18:54 | 10.76995 | -85.78886 | 8312 ft | 298 kts | 174° |
| 2026-05-04 18:54 | 10.74922 | -85.78831 | 7905 ft | 293 kts | 174° |
| 2026-05-04 18:54 | 10.72932 | -85.78780 | 7576 ft | 286 kts | 174° |
| 2026-05-04 18:55 | 10.70922 | -85.78727 | 7211 ft | 284 kts | 175° |
| 2026-05-04 18:55 | 10.67111 | -85.78635 | 6957 ft | 262 kts | 174° |
| 2026-05-04 18:55 | 10.65284 | -85.78612 | 6666 ft | 260 kts | 175° |
| 2026-05-04 18:56 | 10.63476 | -85.78603 | 6358 ft | 260 kts | 175° |
| 2026-05-04 18:56 | 10.61659 | -85.78595 | 6029 ft | 260 kts | 175° |
| 2026-05-04 18:56 | 10.59869 | -85.78583 | 5708 ft | 259 kts | 175° |
| 2026-05-04 18:56 | 10.58065 | -85.78529 | 5398 ft | 256 kts | 169° |
| 2026-05-04 18:57 | 10.56323 | -85.78154 | 5083 ft | 254 kts | 157° |
| 2026-05-04 18:57 | 10.54665 | -85.77504 | 4682 ft | 253 kts | 148° |
| 2026-05-04 18:57 | 10.53324 | -85.76444 | 4351 ft | 236 kts | 127° |
| 2026-05-04 18:57 | 10.52583 | -85.75055 | 4093 ft | 218 kts | 103° |
| 2026-05-04 18:58 | 10.52527 | -85.73549 | 3748 ft | 211 kts | 79° |
| 2026-05-04 18:58 | 10.52973 | -85.72137 | 3387 ft | 211 kts | 70° |
| 2026-05-04 18:58 | 10.53501 | -85.70764 | 3064 ft | 209 kts | 70° |
| 2026-05-04 18:58 | 10.54007 | -85.69396 | 2806 ft | 203 kts | 70° |
| 2026-05-04 18:59 | 10.54486 | -85.68057 | 2532 ft | 199 kts | 71° |
| 2026-05-04 18:59 | 10.54945 | -85.66763 | 2301 ft | 193 kts | 71° |
| 2026-05-04 18:59 | 10.55398 | -85.65498 | 2067 ft | 187 kts | 71° |
| 2026-05-04 18:59 | 10.55835 | -85.64281 | 1849 ft | 176 kts | 71° |
| 2026-05-04 19:00 | 10.56231 | -85.63180 | 1748 ft | 155 kts | 71° |
| 2026-05-04 19:00 | 10.56590 | -85.62178 | 1626 ft | 150 kts | 71° |
| 2026-05-04 19:00 | 10.56945 | -85.61180 | 1445 ft | 150 kts | 71° |
| 2026-05-04 19:00 | 10.57301 | -85.60189 | 1255 ft | 149 kts | 71° |
| 2026-05-04 19:01 | 10.57655 | -85.59207 | 1067 ft | 149 kts | 70° |
| 2026-05-04 19:01 | 10.58010 | -85.58211 | 849 ft | 149 kts | 71° |
| 2026-05-04 19:01 | 10.58352 | -85.57214 | 635 ft | 149 kts | 71° |
| 2026-05-04 19:01 | 10.58698 | -85.56229 | 437 ft | 149 kts | 70° |
| 2026-05-04 19:02 | 10.59051 | -85.55246 | 279 ft | 144 kts | 70° |
| 2026-05-04 19:02 | 10.59322 | -85.54491 | 277 ft | 79 kts | 70° |
| 2026-05-04 19:02 | 10.59451 | -85.54131 | 277 ft | 32 kts | 70° |
| 2026-05-04 19:02 | 10.59519 | -85.53939 | 277 ft | 27 kts | 70° |
| 2026-05-04 19:03 | 10.59581 | -85.53834 | 277 ft | 11 kts | 22° |
| 2026-05-04 19:03 | 10.59658 | -85.53844 | 277 ft | 11 kts | 341° |
| 2026-05-04 19:03 | 10.59730 | -85.53870 | 277 ft | 10 kts | 339° |
| 2026-05-04 19:03 | 10.59780 | -85.53855 | 277 ft | 8 kts | 76° |
| 2026-05-04 19:04 | 10.59801 | -85.53793 | 277 ft | 10 kts | 69° |
| 2026-05-04 19:04 | 10.59831 | -85.53711 | 277 ft | 12 kts | 69° |
| 2026-05-04 19:04 | 10.59861 | -85.53629 | 277 ft | 12 kts | 69° |
| 2026-05-04 19:04 | 10.59884 | -85.53591 | 277 ft | 3 kts | 10° |
| 2026-05-04 19:05 | 10.59915 | -85.53599 | 277 ft | 5 kts | 341° |
| 2026-05-04 19:05 | 10.59945 | -85.53610 | 277 ft | 4 kts | 339° |
| 2026-05-04 19:05 | 10.59959 | -85.53616 | 277 ft | 0 kts | 339° |